createdAt,value
2019-01-17T00:02:46.721Z,-1.08
2019-01-17T00:05:48.373Z,-1.06
2019-01-17T00:08:37.625Z,-1.10
2019-01-17T00:11:17.546Z,-1.04
2019-01-17T00:14:13.061Z,-0.78
2019-01-17T00:17:01.372Z,-0.64
2019-01-17T00:19:47.891Z,-0.37
2019-01-17T00:22:55.281Z,-0.40
2019-01-17T00:25:43.191Z,-0.41
2019-01-17T00:28:41.456Z,-0.18
2019-01-17T00:31:30.831Z,-0.26
2019-01-17T00:34:17.347Z,-0.38
2019-01-17T00:37:15.702Z,-0.48
2019-01-17T00:40:14.367Z,-0.59
2019-01-17T00:43:25.359Z,-0.61
2019-01-17T00:46:14.962Z,-0.66
2019-01-17T00:49:04.153Z,-0.52
2019-01-17T00:52:06.056Z,-0.46
2019-01-17T00:54:53.880Z,-0.42
2019-01-17T00:57:39.325Z,-0.49
2019-01-17T01:00:25.962Z,-0.62
2019-01-17T01:03:15.695Z,-0.75
2019-01-17T01:06:07.807Z,-0.77
2019-01-17T01:08:56.383Z,-0.89
2019-01-17T01:11:52.446Z,-0.70
2019-01-17T01:14:39.749Z,-0.66
2019-01-17T01:17:35.978Z,-0.64
2019-01-17T01:20:25.561Z,-0.45
2019-01-17T01:23:13.572Z,0.09
2019-01-17T01:26:11.141Z,0.17
2019-01-17T01:29:12.906Z,0.57
2019-01-17T01:31:59.137Z,1.20
2019-01-17T01:34:43.633Z,1.33
2019-01-17T01:37:26.677Z,1.41
2019-01-17T01:40:07.449Z,1.48
2019-01-17T01:43:07.556Z,1.45
2019-01-17T01:45:55.208Z,1.61
2019-01-17T01:48:35.529Z,1.53
2019-01-17T01:51:33.485Z,1.48
2019-01-17T01:54:03.334Z,1.33
2019-01-17T01:56:33.168Z,1.22
2019-01-17T01:59:04.152Z,1.19
2019-01-17T02:01:34.498Z,1.19
2019-01-17T02:04:04.495Z,1.25
2019-01-17T02:06:34.854Z,1.22
2019-01-17T02:09:07.719Z,1.28
2019-01-17T02:11:37.547Z,1.35
2019-01-17T02:14:08.293Z,1.47
2019-01-17T02:16:38.136Z,1.48
2019-01-17T02:19:08.163Z,1.40
2019-01-17T02:21:37.876Z,1.45
2019-01-17T02:24:08.319Z,1.48
2019-01-17T02:26:38.139Z,1.42
2019-01-17T02:29:08.558Z,1.30
2019-01-17T02:31:39.041Z,1.22
2019-01-17T02:34:09.448Z,1.08
2019-01-17T02:36:40.285Z,0.97
2019-01-17T02:39:10.142Z,1.08
2019-01-17T02:41:41.205Z,1.16
2019-01-17T02:44:11.168Z,1.14
2019-01-17T02:46:41.081Z,1.36
2019-01-17T02:49:11.270Z,1.71
2019-01-17T02:51:41.791Z,1.71
2019-01-17T02:54:12.086Z,1.79
2019-01-17T02:56:42.296Z,1.78
2019-01-17T02:59:12.727Z,1.80
2019-01-17T03:01:42.606Z,1.80
2019-01-17T03:04:12.979Z,1.82
2019-01-17T03:06:43.522Z,1.79
2019-01-17T03:09:14.143Z,1.75
2019-01-17T03:11:44.574Z,1.77
2019-01-17T03:14:14.885Z,1.78
2019-01-17T03:16:45.558Z,1.84
2019-01-17T03:19:15.848Z,1.87
2019-01-17T03:21:46.244Z,1.91
2019-01-17T03:24:16.487Z,1.89
2019-01-17T03:26:46.839Z,1.88
2019-01-17T03:29:17.306Z,1.92
2019-01-17T03:31:47.791Z,1.99
2019-01-17T03:34:17.514Z,2.05
2019-01-17T03:36:47.906Z,2.10
2019-01-17T03:39:17.604Z,1.97
2019-01-17T03:41:47.933Z,1.98
2019-01-17T03:44:18.155Z,2.00
2019-01-17T03:46:48.394Z,2.08
2019-01-17T03:49:18.621Z,2.18
2019-01-17T03:51:48.864Z,2.25
2019-01-17T03:54:19.456Z,2.31
2019-01-17T03:56:50.045Z,2.36
2019-01-17T03:59:20.643Z,2.41
2019-01-17T04:01:51.036Z,2.46
2019-01-17T04:04:21.357Z,2.46
2019-01-17T04:06:51.730Z,2.43
2019-01-17T04:09:21.879Z,2.47
2019-01-17T04:11:52.068Z,2.44
2019-01-17T04:14:22.319Z,2.42
2019-01-17T04:16:52.502Z,2.37
2019-01-17T04:19:23.002Z,2.28
2019-01-17T04:21:53.971Z,2.22
2019-01-17T04:24:24.583Z,2.19
2019-01-17T04:26:54.908Z,2.25
2019-01-17T04:29:25.359Z,2.20
2019-01-17T04:31:55.898Z,2.21
2019-01-17T04:34:26.733Z,2.14
2019-01-17T04:36:57.204Z,2.02
2019-01-17T04:39:28.071Z,1.98
2019-01-17T04:41:58.618Z,1.92
2019-01-17T04:44:29.136Z,1.94
2019-01-17T04:46:59.973Z,1.88
2019-01-17T04:49:30.568Z,1.82
2019-01-17T04:52:00.763Z,1.73
2019-01-17T04:54:31.212Z,1.63
2019-01-17T04:57:02.339Z,1.54
2019-01-17T04:59:32.707Z,1.41
2019-01-17T05:02:03.299Z,1.32
2019-01-17T05:04:33.584Z,1.30
2019-01-17T05:07:13.134Z,1.37
2019-01-17T05:09:43.660Z,1.45
2019-01-17T05:12:13.907Z,1.51
2019-01-17T05:14:43.993Z,1.44
2019-01-17T05:17:14.271Z,1.41
2019-01-17T05:19:44.427Z,1.42
2019-01-17T05:22:14.818Z,1.44
2019-01-17T05:24:44.914Z,1.38
2019-01-17T05:27:15.254Z,1.40
2019-01-17T05:29:45.716Z,1.40
2019-01-17T05:32:16.549Z,1.29
2019-01-17T05:34:46.807Z,1.22
2019-01-17T05:37:17.227Z,1.30
2019-01-17T05:39:47.404Z,1.29
2019-01-17T05:42:17.570Z,1.25
2019-01-17T05:44:47.840Z,1.18
2019-01-17T05:47:17.943Z,1.04
2019-01-17T05:49:48.033Z,0.93
2019-01-17T05:52:18.399Z,0.89
2019-01-17T05:54:48.535Z,0.84
2019-01-17T05:57:18.721Z,0.73
2019-01-17T05:59:48.882Z,0.63
2019-01-17T06:02:19.301Z,0.63
2019-01-17T06:04:49.568Z,0.55
2019-01-17T06:07:19.727Z,0.51
2019-01-17T06:09:49.896Z,0.49
2019-01-17T06:12:20.079Z,0.46
2019-01-17T06:14:50.237Z,0.39
2019-01-17T06:17:21.057Z,0.32
2019-01-17T06:19:51.223Z,0.31
2019-01-17T06:22:21.331Z,0.31
2019-01-17T06:24:52.013Z,0.30
2019-01-17T06:27:22.264Z,0.29
2019-01-17T06:29:52.421Z,0.28
2019-01-17T06:32:22.836Z,0.24
2019-01-17T06:34:53.614Z,0.18
2019-01-17T06:37:23.862Z,0.13
2019-01-17T06:39:54.006Z,0.09
2019-01-17T06:42:24.114Z,0.09
2019-01-17T06:44:54.343Z,0.13
2019-01-17T06:47:24.526Z,0.19
2019-01-17T06:49:54.927Z,0.27
2019-01-17T06:52:25.065Z,0.32
2019-01-17T06:54:55.159Z,0.31
2019-01-17T06:57:25.523Z,0.32
2019-01-17T06:59:55.865Z,0.36
2019-01-17T07:02:26.025Z,0.39
2019-01-17T07:04:56.113Z,0.41
2019-01-17T07:07:26.210Z,0.42
2019-01-17T07:09:56.905Z,0.48
2019-01-17T07:12:27.897Z,0.53
2019-01-17T07:14:58.128Z,0.58
2019-01-17T07:17:31.355Z,0.59
2019-01-17T07:20:01.759Z,0.63
2019-01-17T07:22:31.857Z,0.68
2019-01-17T07:25:02.020Z,0.71
2019-01-17T07:27:32.312Z,0.76
2019-01-17T07:30:02.535Z,0.82
2019-01-17T07:32:32.795Z,0.89
2019-01-17T07:35:03.153Z,0.93
2019-01-17T07:37:33.598Z,0.95
2019-01-17T07:40:03.958Z,0.98
2019-01-17T07:42:34.063Z,1.00
2019-01-17T07:45:05.248Z,0.98
2019-01-17T07:47:35.344Z,1.00
2019-01-17T07:50:07.213Z,1.00
2019-01-17T07:52:37.448Z,1.17
2019-01-17T07:55:08.584Z,1.15
2019-01-17T07:57:38.888Z,1.07
2019-01-17T08:00:13.541Z,1.09
2019-01-17T08:02:43.688Z,1.04
2019-01-17T08:05:14.033Z,1.10
2019-01-17T08:07:44.901Z,1.18
2019-01-17T08:10:17.526Z,1.23
2019-01-17T08:12:48.479Z,1.33
2019-01-17T08:15:19.190Z,1.38
2019-01-17T08:17:49.345Z,1.43
2019-01-17T08:20:25.985Z,1.49
2019-01-17T08:22:56.219Z,1.52
2019-01-17T08:25:26.421Z,1.55
2019-01-17T08:27:56.591Z,1.58
2019-01-17T08:30:28.490Z,1.68
2019-01-17T08:32:58.635Z,1.74
2019-01-17T08:35:28.950Z,1.80
2019-01-17T08:37:59.429Z,1.82
2019-01-17T08:40:36.816Z,1.87
2019-01-17T08:43:07.562Z,1.91
2019-01-17T08:45:37.799Z,2.01
2019-01-17T08:48:08.043Z,2.08
2019-01-17T08:50:38.365Z,2.16
2019-01-17T08:53:08.676Z,2.27
2019-01-17T08:55:38.854Z,2.35
2019-01-17T08:58:09.110Z,2.43
2019-01-17T09:00:39.443Z,2.57
2019-01-17T09:03:09.669Z,2.67
2019-01-17T09:05:39.846Z,2.79
2019-01-17T09:08:10.091Z,2.83
2019-01-17T09:10:41.054Z,2.85
2019-01-17T09:13:11.243Z,2.92
2019-01-17T09:15:41.401Z,3.03
2019-01-17T09:18:12.299Z,3.12
2019-01-17T09:20:42.395Z,3.20
2019-01-17T09:23:12.620Z,3.28
2019-01-17T09:25:43.213Z,3.39
2019-01-17T09:28:13.917Z,3.47
2019-01-17T09:30:43.996Z,3.57
2019-01-17T09:33:14.155Z,3.65
2019-01-17T09:35:44.347Z,3.66
2019-01-17T09:38:14.843Z,3.58
2019-01-17T09:40:45.091Z,3.54
2019-01-17T09:43:15.650Z,3.52
2019-01-17T09:45:45.894Z,3.54
2019-01-17T09:48:16.228Z,3.57
2019-01-17T09:50:46.662Z,3.65
2019-01-17T09:53:17.308Z,3.67
2019-01-17T09:55:47.644Z,3.81
2019-01-17T09:58:18.150Z,4.05
2019-01-17T10:00:48.557Z,4.37
2019-01-17T10:03:18.779Z,4.56
2019-01-17T10:05:49.215Z,4.44
2019-01-17T10:08:20.051Z,4.40
2019-01-17T10:10:50.470Z,4.41
2019-01-17T10:13:20.928Z,4.52
2019-01-17T10:16:11.353Z,4.57
2019-01-17T10:19:53.948Z,4.68
2019-01-17T10:23:23.483Z,4.73
2019-01-17T10:27:02.068Z,4.86
2019-01-17T10:30:22.108Z,5.22
2019-01-17T10:33:24.815Z,5.35
2019-01-17T10:36:41.567Z,5.39
2019-01-17T10:39:51.378Z,5.44
2019-01-17T10:42:48.889Z,5.53
2019-01-17T10:45:55.813Z,5.57
2019-01-17T10:49:07.385Z,5.71
2019-01-17T10:52:32.129Z,5.72
2019-01-17T10:56:02.721Z,5.83
2019-01-17T10:59:01.105Z,5.84
2019-01-17T11:01:53.616Z,5.85
2019-01-17T11:05:34.266Z,5.83
2019-01-17T11:09:00.286Z,5.86
2019-01-17T11:12:26.059Z,5.82
2019-01-17T11:15:54.175Z,5.88
2019-01-17T11:19:36.734Z,5.94
2019-01-17T11:22:44.227Z,6.05
2019-01-17T11:26:35.788Z,6.04
2019-01-17T11:29:59.031Z,6.18
2019-01-17T11:33:19.400Z,6.29
2019-01-17T11:36:35.003Z,6.29
2019-01-17T11:39:34.485Z,6.33
2019-01-17T11:43:11.738Z,6.37
2019-01-17T11:46:12.434Z,6.56
2019-01-17T11:49:41.482Z,6.52
2019-01-17T11:52:57.427Z,6.59
2019-01-17T11:55:56.389Z,6.54
2019-01-17T11:59:12.569Z,6.61
2019-01-17T12:02:39.328Z,6.63
2019-01-17T12:05:10.318Z,6.66
2019-01-17T12:07:40.686Z,6.74
2019-01-17T12:10:10.546Z,6.69
2019-01-17T12:12:41.164Z,6.69
2019-01-17T12:15:11.822Z,6.70
2019-01-17T12:17:42.364Z,6.68
2019-01-17T12:20:12.879Z,6.77
2019-01-17T12:22:43.686Z,6.76
2019-01-17T12:25:14.017Z,6.87
2019-01-17T12:27:44.562Z,6.83
2019-01-17T12:30:16.115Z,6.75
2019-01-17T12:32:46.323Z,6.81
2019-01-17T12:35:16.771Z,6.80
2019-01-17T12:37:47.671Z,6.76
2019-01-17T12:40:18.015Z,6.82
2019-01-17T12:42:48.570Z,6.85
2019-01-17T12:45:18.770Z,6.85
2019-01-17T12:47:48.409Z,6.82
2019-01-17T12:50:20.312Z,6.80
2019-01-17T12:52:50.582Z,6.79
2019-01-17T12:55:20.393Z,6.74
2019-01-17T12:57:50.527Z,6.71
2019-01-17T13:00:22.288Z,6.61
2019-01-17T13:02:52.548Z,6.64
2019-01-17T13:05:22.879Z,6.62
2019-01-17T13:07:53.159Z,6.63
2019-01-17T13:10:23.488Z,6.63
2019-01-17T13:12:53.598Z,6.58
2019-01-17T13:15:24.237Z,6.58
2019-01-17T13:17:55.198Z,6.53
2019-01-17T13:20:25.579Z,6.44
2019-01-17T13:22:56.201Z,6.38
2019-01-17T13:25:26.647Z,6.35
2019-01-17T13:27:56.937Z,6.36
2019-01-17T13:30:27.254Z,6.31
2019-01-17T13:32:57.606Z,6.28
2019-01-17T13:35:28.014Z,6.28
2019-01-17T13:37:58.479Z,6.22
2019-01-17T13:40:28.810Z,6.18
2019-01-17T13:42:59.208Z,6.14
2019-01-17T13:45:30.721Z,6.14
2019-01-17T13:48:01.144Z,6.08
2019-01-17T13:50:31.285Z,6.04
2019-01-17T13:53:01.665Z,6.02
2019-01-17T13:55:31.841Z,6.06
2019-01-17T13:58:02.155Z,6.08
2019-01-17T14:00:32.541Z,6.08
2019-01-17T14:03:02.845Z,6.03
2019-01-17T14:05:33.525Z,6.05
2019-01-17T14:08:04.128Z,6.04
2019-01-17T14:10:34.393Z,6.01
2019-01-17T14:13:04.160Z,6.00
2019-01-17T14:15:33.955Z,6.02
2019-01-17T14:18:04.434Z,6.03
2019-01-17T14:20:34.803Z,6.03
2019-01-17T14:23:04.724Z,6.00
2019-01-17T14:25:34.932Z,6.05
2019-01-17T14:28:05.199Z,5.98
2019-01-17T14:30:35.693Z,5.99
2019-01-17T14:33:06.270Z,5.94
2019-01-17T14:35:36.567Z,5.91
2019-01-17T14:38:07.103Z,5.92
2019-01-17T14:40:37.405Z,5.94
2019-01-17T14:43:07.699Z,5.89
2019-01-17T14:45:38.237Z,5.83
2019-01-17T14:48:08.997Z,5.82
2019-01-17T14:50:38.780Z,5.78
2019-01-17T14:53:09.229Z,5.77
2019-01-17T14:55:39.845Z,5.79
2019-01-17T14:58:10.145Z,5.72
2019-01-17T15:00:40.483Z,5.72
2019-01-17T15:03:10.697Z,5.70
2019-01-17T15:05:41.084Z,5.67
2019-01-17T15:08:11.311Z,5.63
2019-01-17T15:10:42.790Z,5.62
2019-01-17T15:13:13.165Z,5.57
2019-01-17T15:15:43.543Z,5.47
2019-01-17T15:18:14.002Z,5.14
2019-01-17T15:20:44.322Z,4.85
2019-01-17T15:23:15.241Z,4.71
2019-01-17T15:25:45.558Z,4.58
2019-01-17T15:28:15.739Z,4.49
2019-01-17T15:30:45.990Z,4.33
2019-01-17T15:33:16.220Z,4.23
2019-01-17T15:35:46.868Z,3.99
2019-01-17T15:38:17.132Z,3.73
2019-01-17T15:40:47.553Z,3.58
2019-01-17T15:43:17.908Z,3.63
2019-01-17T15:45:48.282Z,3.67
2019-01-17T15:48:18.671Z,3.69
2019-01-17T15:50:49.287Z,3.69
2019-01-17T15:53:19.711Z,3.68
2019-01-17T15:55:50.011Z,3.68
2019-01-17T15:58:20.240Z,3.70
2019-01-17T16:00:50.610Z,3.67
2019-01-17T16:03:20.791Z,3.68
2019-01-17T16:05:51.387Z,3.71
2019-01-17T16:08:21.759Z,3.77
2019-01-17T16:10:52.218Z,3.77
2019-01-17T16:13:22.503Z,3.73
2019-01-17T16:15:52.856Z,3.69
2019-01-17T16:18:23.345Z,3.66
2019-01-17T16:20:53.687Z,3.64
2019-01-17T16:23:24.146Z,3.62
2019-01-17T16:25:54.515Z,3.60
2019-01-17T16:28:24.779Z,3.65
2019-01-17T16:30:55.156Z,3.63
2019-01-17T16:33:25.266Z,3.58
2019-01-17T16:35:55.517Z,3.56
2019-01-17T16:38:25.733Z,3.57
2019-01-17T16:40:56.528Z,3.59
2019-01-17T16:43:27.269Z,3.58
2019-01-17T16:45:57.581Z,3.60
2019-01-17T16:48:28.460Z,3.62
2019-01-17T16:50:58.588Z,3.55
2019-01-17T16:53:28.844Z,3.50
2019-01-17T16:55:59.343Z,3.44
2019-01-17T16:58:29.695Z,3.41
2019-01-17T17:00:59.962Z,3.40
2019-01-17T17:03:30.246Z,3.40
2019-01-17T17:06:00.853Z,3.41
2019-01-17T17:08:31.283Z,3.45
2019-01-17T17:11:01.903Z,3.45
2019-01-17T17:13:32.663Z,3.42
2019-01-17T17:16:03.016Z,3.38
2019-01-17T17:18:33.449Z,3.41
2019-01-17T17:21:03.861Z,3.39
2019-01-17T17:23:34.068Z,3.37
2019-01-17T17:26:04.439Z,3.43
2019-01-17T17:28:34.854Z,3.40
2019-01-17T17:31:05.277Z,3.36
2019-01-17T17:33:36.040Z,3.36
2019-01-17T17:36:06.592Z,3.42
2019-01-17T17:38:36.999Z,3.41
2019-01-17T17:41:07.376Z,3.41
2019-01-17T17:43:37.536Z,3.42
2019-01-17T17:46:08.149Z,3.48
2019-01-17T17:48:38.695Z,3.44
2019-01-17T17:51:09.077Z,3.47
2019-01-17T17:53:39.288Z,3.43
2019-01-17T17:56:09.731Z,3.41
2019-01-17T17:58:40.167Z,3.42
2019-01-17T18:01:27.519Z,3.44
2019-01-17T18:03:57.674Z,3.44
2019-01-17T18:06:27.837Z,3.41
2019-01-17T18:08:58.191Z,3.39
2019-01-17T18:11:28.487Z,3.37
2019-01-17T18:13:58.899Z,3.38
2019-01-17T18:16:29.190Z,3.38
2019-01-17T18:19:00.244Z,3.39
2019-01-17T18:21:30.602Z,3.33
2019-01-17T18:24:02.438Z,3.29
2019-01-17T18:26:32.924Z,3.28
2019-01-17T18:29:03.449Z,3.28
2019-01-17T18:31:33.734Z,3.23
2019-01-17T18:34:05.355Z,3.26
2019-01-17T18:36:35.843Z,3.24
2019-01-17T18:39:12.730Z,3.24
2019-01-17T18:41:43.167Z,3.28
2019-01-17T18:44:13.450Z,3.28
2019-01-17T18:46:43.818Z,3.29
2019-01-17T18:49:14.276Z,3.25
2019-01-17T18:51:45.503Z,3.26
2019-01-17T18:54:16.017Z,3.27
2019-01-17T18:56:47.020Z,3.22
2019-01-17T18:59:17.398Z,3.25
2019-01-17T19:01:47.702Z,3.20
2019-01-17T19:04:17.959Z,3.19
2019-01-17T19:06:48.477Z,3.15
2019-01-17T19:09:18.754Z,3.18
2019-01-17T19:11:49.116Z,3.15
2019-01-17T19:14:19.574Z,3.24
2019-01-17T19:16:49.821Z,3.29
2019-01-17T19:19:20.001Z,3.30
2019-01-17T19:21:50.434Z,3.32
2019-01-17T19:24:20.970Z,3.37
2019-01-17T19:26:51.320Z,3.34
2019-01-17T19:29:21.725Z,3.41
2019-01-17T19:31:52.372Z,3.39
2019-01-17T19:34:22.798Z,3.44
2019-01-17T19:36:53.082Z,3.45
2019-01-17T19:39:23.350Z,3.43
2019-01-17T19:41:53.732Z,3.41
2019-01-17T19:44:25.007Z,3.44
2019-01-17T19:46:55.299Z,3.42
2019-01-17T19:49:26.125Z,3.21
2019-01-17T19:51:56.327Z,2.87
2019-01-17T19:54:26.708Z,2.65
2019-01-17T19:56:57.582Z,2.53
2019-01-17T19:59:27.831Z,2.43
2019-01-17T20:01:58.206Z,2.37
2019-01-17T20:04:28.991Z,2.39
2019-01-17T20:06:59.246Z,2.65
2019-01-17T20:09:29.475Z,2.73
2019-01-17T20:11:59.803Z,2.77
2019-01-17T20:14:29.972Z,2.77
2019-01-17T20:17:00.219Z,2.77
2019-01-17T20:19:30.667Z,2.76
2019-01-17T20:22:01.269Z,2.64
2019-01-17T20:24:31.598Z,2.54
2019-01-17T20:27:02.564Z,2.43
2019-01-17T20:29:32.897Z,2.33
2019-01-17T20:32:03.708Z,2.27
2019-01-17T20:34:34.044Z,2.26
2019-01-17T20:37:04.406Z,2.21
2019-01-17T20:39:34.847Z,2.16
2019-01-17T20:42:05.744Z,2.16
2019-01-17T20:44:35.982Z,2.08
2019-01-17T20:47:06.492Z,2.00
2019-01-17T20:49:36.903Z,1.96
2019-01-17T20:52:07.212Z,1.94
2019-01-17T20:54:40.434Z,1.90
2019-01-17T20:57:12.166Z,1.85
2019-01-17T20:59:42.427Z,1.87
2019-01-17T21:02:20.135Z,1.88
2019-01-17T21:04:52.268Z,1.93
2019-01-17T21:07:22.794Z,2.02
2019-01-17T21:09:53.458Z,2.10
2019-01-17T21:12:23.806Z,2.12
2019-01-17T21:14:54.059Z,2.14
2019-01-17T21:17:24.235Z,2.11
2019-01-17T21:19:54.412Z,2.08
2019-01-17T21:22:24.607Z,2.14
2019-01-17T21:24:55.331Z,2.18
2019-01-17T21:27:25.840Z,2.20
2019-01-17T21:29:56.002Z,2.21
2019-01-17T21:32:26.197Z,2.21
2019-01-17T21:34:56.439Z,2.25
2019-01-17T21:37:26.968Z,2.26
2019-01-17T21:39:57.311Z,2.21
2019-01-17T21:42:27.843Z,2.14
2019-01-17T21:44:57.934Z,2.07
2019-01-17T21:47:28.156Z,2.01
2019-01-17T21:49:58.866Z,1.96
2019-01-17T21:52:29.305Z,1.97
2019-01-17T21:54:59.538Z,1.90
2019-01-17T21:57:30.181Z,1.84
2019-01-17T22:00:00.258Z,1.79
2019-01-17T22:02:30.465Z,1.77
2019-01-17T22:05:00.562Z,1.75
2019-01-17T22:07:30.690Z,1.78
2019-01-17T22:10:01.749Z,1.81
2019-01-17T22:12:32.244Z,1.75
2019-01-17T22:15:02.433Z,1.72
2019-01-17T22:17:32.889Z,1.68
2019-01-17T22:20:03.083Z,1.60
2019-01-17T22:22:33.586Z,1.58
2019-01-17T22:25:06.042Z,1.59
2019-01-17T22:27:36.212Z,1.66
2019-01-17T22:30:11.670Z,1.67
2019-01-17T22:32:41.850Z,1.71
2019-01-17T22:35:12.182Z,1.69
2019-01-17T22:37:42.626Z,1.69
2019-01-17T22:40:14.669Z,1.63
2019-01-17T22:42:44.940Z,1.57
2019-01-17T22:45:24.942Z,1.59
2019-01-17T22:47:55.223Z,1.62
2019-01-17T22:50:25.464Z,1.61
2019-01-17T22:52:55.950Z,1.63
2019-01-17T22:55:26.476Z,1.62
2019-01-17T22:57:56.933Z,1.59
2019-01-17T23:01:13.001Z,1.63
2019-01-17T23:03:46.300Z,1.58
2019-01-17T23:06:16.889Z,1.59
2019-01-17T23:08:47.587Z,1.64
2019-01-17T23:11:17.744Z,1.63
2019-01-17T23:13:47.897Z,1.65
2019-01-17T23:16:18.220Z,1.65
2019-01-17T23:18:48.521Z,1.64
2019-01-17T23:21:19.100Z,1.56
2019-01-17T23:23:49.220Z,1.58
2019-01-17T23:26:19.393Z,1.60
2019-01-17T23:28:49.494Z,1.54
2019-01-17T23:31:20.243Z,1.52
2019-01-17T23:33:51.039Z,1.52
2019-01-17T23:36:21.258Z,1.53
2019-01-17T23:38:51.462Z,1.57
2019-01-17T23:41:21.551Z,1.56
2019-01-17T23:43:52.210Z,1.58
2019-01-17T23:46:22.342Z,1.57
2019-01-17T23:48:52.505Z,1.55
2019-01-17T23:51:22.817Z,1.56
2019-01-17T23:53:52.871Z,1.54
2019-01-17T23:56:23.190Z,1.49
2019-01-17T23:58:53.271Z,1.47
